Time;durP1;ratioP1;P1;durP2;ratioP2;P2;SDS_P1;SDS_P2;PMS_P1;PMS_P2;Temp;Humidity;BMP_temperature;BMP_pressure;BME280_temperature;BME280_humidity;BME280_pressure;Samples;Min_cycle;Max_cycle;Signal;HPM_P1;HPM_P2
2022/10/07 00:00:48;;;;;;;8.98;4.28;;;;;;;11.94;70.58;101880.94;4163528;28;20033;-61
2022/10/07 00:02:51;;;;;;;11.85;4.97;;;;;;;11.96;70.57;101878.38;4155228;28;20042;-62
2022/10/07 00:04:54;;;;;;;12.60;4.97;;;;;;;11.99;70.74;101878.50;4138034;28;20038;-61
2022/10/07 00:06:58;;;;;;;16.25;5.35;;;;;;;12.01;70.76;101877.69;4160401;28;20113;-61
2022/10/07 00:09:01;;;;;;;11.10;5.15;;;;;;;12.01;70.61;101884.66;4146932;28;20077;-61
2022/10/07 00:11:09;;;;;;;13.70;5.25;;;;;;;12.07;70.21;101879.63;4152883;28;20057;-62
2022/10/07 00:13:11;;;;;;;15.63;5.82;;;;;;;12.02;70.15;101862.97;4159973;28;20415;-61
2022/10/07 00:15:14;;;;;;;12.90;5.07;;;;;;;12.01;70.81;101876.81;4155659;28;20076;-62
2022/10/07 00:17:17;;;;;;;12.82;5.20;;;;;;;12.02;70.78;101881.22;4164512;28;20044;-61
2022/10/07 00:19:20;;;;;;;11.80;4.93;;;;;;;12.01;70.97;101877.69;4163715;28;20124;-62
2022/10/07 00:21:24;;;;;;;10.13;4.53;;;;;;;12.01;71.12;101874.22;4158731;28;20037;-61
2022/10/07 00:23:28;;;;;;;14.48;5.45;;;;;;;11.98;70.67;101868.91;4121534;28;20158;-61
2022/10/07 00:25:31;;;;;;;10.63;4.88;;;;;;;11.97;71.27;101874.94;4147052;28;20042;-62
2022/10/07 00:27:34;;;;;;;15.23;4.88;;;;;;;11.97;71.53;101880.16;4146945;28;20130;-61
2022/10/07 00:29:36;;;;;;;9.45;4.60;;;;;;;11.98;71.50;101880.22;4146916;28;20487;-62
2022/10/07 00:31:40;;;;;;;13.75;5.00;;;;;;;12.02;71.36;101870.78;4145770;28;20446;-61
2022/10/07 00:33:43;;;;;;;10.10;3.60;;;;;;;12.00;71.38;101873.34;4137953;28;20042;-62
2022/10/07 00:35:46;;;;;;;10.23;5.13;;;;;;;12.01;71.20;101863.78;4130078;28;20046;-61
2022/10/07 00:37:49;;;;;;;10.20;4.32;;;;;;;11.96;71.18;101863.66;4146518;28;20054;-61
2022/10/07 00:39:54;;;;;;;10.85;4.97;;;;;;;11.96;71.45;101866.25;4146009;28;20149;-61
2022/10/07 00:41:57;;;;;;;9.70;4.70;;;;;;;11.96;71.69;101854.94;4144711;28;20041;-62
2022/10/07 00:44:00;;;;;;;12.18;4.45;;;;;;;11.97;71.73;101857.63;4156389;28;20535;-61
2022/10/07 00:46:07;;;;;;;11.48;4.78;;;;;;;12.01;71.57;101848.16;4164069;28;20124;-61
2022/10/07 00:48:11;;;;;;;11.43;4.30;;;;;;;12.00;71.09;101838.56;4163877;28;20164;-61
2022/10/07 00:50:18;;;;;;;9.88;3.92;;;;;;;11.97;71.37;101841.06;4162055;28;20084;-61
2022/10/07 00:52:24;;;;;;;12.45;4.07;;;;;;;11.97;71.24;101828.03;4143126;28;20034;-61
2022/10/07 00:54:27;;;;;;;11.00;3.75;;;;;;;11.95;71.46;101827.13;4131575;28;20042;-61
2022/10/07 00:56:33;;;;;;;11.98;4.18;;;;;;;11.87;71.00;101832.94;4163810;28;20053;-61
2022/10/07 00:58:40;;;;;;;8.07;3.97;;;;;;;11.84;71.51;101827.66;4146658;28;20072;-61
2022/10/07 01:00:42;;;;;;;14.43;4.40;;;;;;;11.80;71.06;101836.19;4145340;28;20046;-61
2022/10/07 01:02:47;;;;;;;9.48;3.40;;;;;;;11.80;71.52;101823.16;4136066;28;20035;-61
2022/10/07 01:04:52;;;;;;;9.52;4.35;;;;;;;11.83;70.77;101828.47;4145638;28;20504;-61
2022/10/07 01:06:55;;;;;;;9.20;3.90;;;;;;;11.83;71.10;101819.78;4146289;28;20042;-61
2022/10/07 01:08:58;;;;;;;12.30;4.22;;;;;;;11.83;70.46;101825.00;4146335;28;20089;-61
2022/10/07 01:11:17;;;;;;;10.27;4.07;;;;;;;11.80;70.85;101832.72;4120604;28;20109;-61
2022/10/07 01:13:30;;;;;;;6.68;3.22;;;;;;;11.69;71.38;101832.34;4161131;28;20511;-61
2022/10/07 01:15:39;;;;;;;7.72;3.35;;;;;;;11.68;70.89;101830.59;4146253;28;20115;-61
2022/10/07 01:17:52;;;;;;;7.75;3.60;;;;;;;11.69;71.42;101820.22;4146020;28;20048;-61
2022/10/07 01:20:18;;;;;;;7.57;2.85;;;;;;;11.60;71.38;101822.53;4129129;28;20050;-61
2022/10/07 01:22:29;;;;;;;11.63;3.75;;;;;;;11.53;71.38;101818.88;4137963;28;20034;-61
2022/10/07 01:24:41;;;;;;;12.32;4.07;;;;;;;11.53;70.98;101826.69;4132835;28;20050;-61
2022/10/07 01:27:00;;;;;;;13.13;3.88;;;;;;;11.51;71.38;101823.13;4146188;28;20093;-61
2022/10/07 01:29:09;;;;;;;9.07;3.80;;;;;;;11.44;71.39;101818.53;4146350;28;20037;-61
2022/10/07 01:31:15;;;;;;;14.60;4.68;;;;;;;11.38;71.70;101818.34;4163581;28;20103;-61
2022/10/07 01:33:26;;;;;;;9.02;4.13;;;;;;;11.41;70.91;101808.03;4144695;28;20093;-62
2022/10/07 01:35:34;;;;;;;9.32;4.35;;;;;;;11.35;71.41;101805.25;4165041;28;20061;-62
2022/10/07 01:37:41;;;;;;;10.68;4.03;;;;;;;11.31;71.28;101805.97;4165414;28;20045;-61
2022/10/07 01:39:49;;;;;;;9.88;4.38;;;;;;;11.30;70.71;101802.50;4148782;28;20041;-61
2022/10/07 01:41:54;;;;;;;13.73;5.47;;;;;;;11.32;70.61;101800.81;4156927;28;20046;-61
2022/10/07 01:44:00;;;;;;;12.13;4.70;;;;;;;11.37;69.71;101795.75;4126156;28;20054;-62
2022/10/07 01:46:06;;;;;;;14.07;5.43;;;;;;;11.33;69.91;101789.56;4165433;28;20045;-61
2022/10/07 01:48:10;;;;;;;15.38;4.35;;;;;;;11.29;70.42;101784.22;4164449;28;20033;-62
2022/10/07 01:50:15;;;;;;;11.60;4.88;;;;;;;11.32;69.94;101782.59;4132704;28;20595;-61
2022/10/07 01:52:40;;;;;;;15.90;5.45;;;;;;;11.38;69.50;101775.81;4148795;28;20042;-61
2022/10/07 01:55:01;;;;;;;13.70;4.43;;;;;;;11.41;69.82;101782.00;4148123;28;20041;-61
2022/10/07 01:57:18;;;;;;;12.57;5.25;;;;;;;11.44;69.75;101776.00;4147930;28;20038;-61
2022/10/07 01:59:42;;;;;;;15.25;5.45;;;;;;;11.45;69.34;101778.66;4141071;28;20622;-61
2022/10/07 02:01:53;;;;;;;11.50;4.28;;;;;;;11.42;69.19;101775.06;4148686;28;20104;-61
2022/10/07 02:04:24;;;;;;;11.35;4.65;;;;;;;11.35;69.55;101776.59;4147913;28;20033;-62
2022/10/07 02:06:38;;;;;;;15.38;5.03;;;;;;;11.28;70.10;101777.22;4141895;28;20054;-62
2022/10/07 02:08:46;;;;;;;12.38;4.88;;;;;;;11.23;70.31;101781.38;4142032;28;20053;-64
2022/10/07 02:11:01;;;;;;;12.88;3.88;;;;;;;11.18;70.57;101768.22;4166091;28;20124;-62
2022/10/07 02:13:11;;;;;;;13.27;4.53;;;;;;;11.21;69.85;101768.31;4166255;28;20034;-62
2022/10/07 02:15:23;;;;;;;12.30;4.20;;;;;;;11.15;70.57;101766.41;4163361;28;20533;-61
2022/10/07 02:17:30;;;;;;;9.95;3.90;;;;;;;11.13;70.29;101760.28;4143843;28;20042;-62
2022/10/07 02:19:38;;;;;;;10.82;4.25;;;;;;;11.12;70.35;101763.69;4162824;28;20056;-62
2022/10/07 02:21:44;;;;;;;12.10;4.80;;;;;;;11.15;70.10;101762.94;4150755;28;20407;-61
2022/10/07 02:23:49;;;;;;;11.73;4.47;;;;;;;11.18;70.30;101756.13;4165366;28;20435;-61
2022/10/07 02:25:53;;;;;;;6.80;3.35;;;;;;;11.21;70.84;101752.72;4146556;28;20108;-63
2022/10/07 02:27:57;;;;;;;12.55;5.10;;;;;;;11.26;70.36;101755.50;4137641;28;20038;-62
2022/10/07 02:30:07;;;;;;;14.63;5.07;;;;;;;11.36;70.30;101747.13;4159988;28;20037;-62
2022/10/07 02:32:13;;;;;;;12.13;4.60;;;;;;;11.48;69.44;101739.69;4148446;28;20042;-62
2022/10/07 02:34:19;;;;;;;17.60;4.88;;;;;;;11.55;69.53;101737.28;4163810;28;20059;-62
2022/10/07 02:36:27;;;;;;;18.05;5.07;;;;;;;11.61;69.04;101737.44;4158507;28;20041;-62
2022/10/07 02:38:31;;;;;;;14.60;4.55;;;;;;;11.58;69.40;101735.66;4146038;28;20038;-63
2022/10/07 02:40:37;;;;;;;16.42;4.93;;;;;;;11.64;69.24;101732.38;4160288;28;20037;-63
2022/10/07 02:42:52;;;;;;;17.08;4.85;;;;;;;11.66;69.21;101728.94;4164519;28;20068;-63
2022/10/07 02:45:01;;;;;;;12.90;4.95;;;;;;;11.64;69.24;101729.75;4146071;28;20038;-63
2022/10/07 02:47:13;;;;;;;16.55;4.53;;;;;;;11.58;69.23;101733.06;4146421;28;20136;-62
2022/10/07 02:49:17;;;;;;;10.75;4.18;;;;;;;11.58;70.01;101735.66;4132159;28;20042;-63
2022/10/07 02:51:25;;;;;;;11.80;4.00;;;;;;;11.62;69.00;101734.03;4116498;28;20042;-63
2022/10/07 02:53:31;;;;;;;9.35;3.67;;;;;;;11.57;69.62;101735.63;4159322;28;20538;-62
2022/10/07 02:55:34;;;;;;;9.75;3.80;;;;;;;11.58;69.54;101732.16;4131954;28;20053;-62
2022/10/07 02:57:40;;;;;;;11.07;4.22;;;;;;;11.57;68.85;101738.22;4164299;28;20438;-62
2022/10/07 02:59:47;;;;;;;14.73;4.45;;;;;;;11.60;68.94;101735.72;4148334;28;20081;-63
2022/10/07 03:01:55;;;;;;;11.25;4.18;;;;;;;11.60;69.09;101735.72;4148029;28;20052;-63
2022/10/07 03:03:59;;;;;;;14.25;4.15;;;;;;;11.63;68.78;101726.25;4130651;28;20432;-63
2022/10/07 03:06:03;;;;;;;10.93;3.60;;;;;;;11.54;68.96;101723.38;4145896;28;20547;-62
2022/10/07 03:08:10;;;;;;;12.60;3.17;;;;;;;11.44;68.83;101724.81;4143536;28;20056;-63
2022/10/07 03:10:16;;;;;;;11.52;3.60;;;;;;;11.46;69.73;101723.16;4147787;28;20065;-62
2022/10/07 03:12:18;;;;;;;16.52;5.38;;;;;;;11.48;69.18;101728.41;4147932;28;20048;-62
2022/10/07 03:14:23;;;;;;;14.40;3.97;;;;;;;11.48;69.15;101726.66;4146235;28;20038;-63
2022/10/07 03:16:26;;;;;;;11.52;4.22;;;;;;;11.46;68.48;101720.53;4137803;28;20098;-63
2022/10/07 03:18:29;;;;;;;14.10;4.90;;;;;;;11.50;68.33;101721.50;4145773;28;20534;-62
2022/10/07 03:20:52;;;;;;;13.90;3.28;;;;;;;11.43;68.29;101717.81;4165419;28;20117;-63
2022/10/07 03:22:55;;;;;;;10.40;3.10;;;;;;;11.43;68.19;101715.22;4147825;28;20050;-63
2022/10/07 03:24:58;;;;;;;8.55;3.85;;;;;;;11.45;68.07;101708.34;4129758;28;20518;-63
2022/10/07 03:27:01;;;;;;;11.70;4.22;;;;;;;11.45;67.53;101710.09;4161116;28;20127;-63
2022/10/07 03:29:04;;;;;;;12.07;4.60;;;;;;;11.42;68.17;101709.97;4147798;28;20046;-63
2022/10/07 03:31:10;;;;;;;11.65;4.10;;;;;;;11.33;68.02;101713.16;4146834;28;20064;-63
2022/10/07 03:33:20;;;;;;;18.40;3.92;;;;;;;11.32;68.82;101708.81;4155433;28;20038;-63
2022/10/07 03:35:23;;;;;;;10.63;3.42;;;;;;;11.34;67.66;101694.09;4133061;28;20051;-63
2022/10/07 03:37:29;;;;;;;9.02;3.60;;;;;;;11.36;67.85;101700.28;4160737;28;20128;-63
2022/10/07 03:39:34;;;;;;;15.57;3.55;;;;;;;11.38;67.83;101697.72;4163694;28;20132;-62
2022/10/07 03:41:38;;;;;;;15.45;3.70;;;;;;;11.33;68.71;101697.53;4144815;28;20562;-63
2022/10/07 03:43:41;;;;;;;13.13;3.95;;;;;;;11.32;68.22;101699.28;4123118;28;20085;-62
2022/10/07 03:45:49;;;;;;;11.05;4.28;;;;;;;11.33;67.62;101701.06;4144540;28;20033;-62
2022/10/07 03:47:52;;;;;;;15.95;4.10;;;;;;;11.32;68.14;101688.84;4128486;28;20042;-62
2022/10/07 03:49:55;;;;;;;10.10;3.38;;;;;;;11.29;68.58;101691.38;4145535;28;20037;-62
2022/10/07 03:51:59;;;;;;;13.10;4.07;;;;;;;11.30;67.65;101687.03;4147029;28;20049;-62
2022/10/07 03:54:04;;;;;;;28.83;4.18;;;;;;;11.30;68.31;101685.34;4133882;28;20093;-62
2022/10/07 03:56:08;;;;;;;10.23;4.10;;;;;;;11.35;67.81;101685.47;4142940;28;20114;-62
2022/10/07 03:58:12;;;;;;;14.05;4.32;;;;;;;11.32;67.93;101683.66;4134394;28;20034;-62
2022/10/07 04:00:16;;;;;;;11.48;4.18;;;;;;;11.27;68.09;101686.94;4164435;28;20029;-62
2022/10/07 04:02:25;;;;;;;20.27;4.18;;;;;;;11.28;68.71;101676.56;4143334;28;20046;-62
2022/10/07 04:04:29;;;;;;;9.68;3.88;;;;;;;11.35;68.36;101683.75;4134419;28;20032;-62
2022/10/07 04:06:33;;;;;;;12.00;4.20;;;;;;;11.31;67.76;101691.41;4146959;28;20045;-62
2022/10/07 04:08:42;;;;;;;13.65;4.20;;;;;;;11.28;68.58;101689.59;4130580;28;20473;-62
2022/10/07 04:10:46;;;;;;;10.00;4.00;;;;;;;11.20;69.03;101691.09;4140800;28;20046;-62
2022/10/07 04:12:50;;;;;;;10.63;4.03;;;;;;;11.17;69.21;101694.47;4149616;28;20050;-62
2022/10/07 04:14:53;;;;;;;11.68;3.50;;;;;;;11.23;68.82;101682.47;4138247;28;20057;-62
2022/10/07 04:16:56;;;;;;;15.32;4.65;;;;;;;11.21;69.08;101682.44;4144613;28;20504;-62
2022/10/07 04:18:59;;;;;;;18.55;4.43;;;;;;;11.21;69.29;101678.94;4146281;28;20133;-63
2022/10/07 04:21:04;;;;;;;13.55;3.85;;;;;;;11.15;68.70;101680.50;4141631;28;20045;-62
2022/10/07 04:23:08;;;;;;;14.20;5.00;;;;;;;11.17;68.84;101678.84;4143951;28;20037;-62
2022/10/07 04:27:34;;;;;;;13.32;4.82;;;;;;;11.14;68.63;101672.66;4147219;28;20052;-62
2022/10/07 04:29:54;;;;;;;12.30;5.38;;;;;;;11.11;69.21;101673.47;4145827;28;20046;-62
2022/10/07 04:31:57;;;;;;;15.32;4.45;;;;;;;11.15;69.23;101669.22;4155131;28;20420;-62
2022/10/07 04:34:00;;;;;;;20.77;5.82;;;;;;;11.12;69.36;101675.22;4138397;28;20068;-62
2022/10/07 04:36:10;;;;;;;12.77;4.70;;;;;;;11.14;68.40;101667.44;4136052;28;20081;-62
2022/10/07 04:38:20;;;;;;;13.95;4.78;;;;;;;11.18;69.13;101669.31;4149297;28;20104;-62
2022/10/07 04:40:28;;;;;;;19.23;5.28;;;;;;;11.23;67.74;101666.84;4118629;28;20467;-62
2022/10/07 04:44:53;;;;;;;17.63;5.25;;;;;;;11.12;67.79;101659.59;4138092;28;20121;-62
2022/10/07 04:46:56;;;;;;;10.05;4.93;;;;;;;11.07;68.74;101652.47;4146075;28;20038;-62
2022/10/07 04:49:01;;;;;;;8.82;3.58;;;;;;;11.04;68.17;101655.91;4160763;28;20415;-62
2022/10/07 04:51:07;;;;;;;20.13;5.43;;;;;;;11.05;68.60;101655.03;4144812;28;20583;-62
2022/10/07 04:53:14;;;;;;;19.02;4.72;;;;;;;11.07;67.72;101657.69;4142824;28;20088;-62
2022/10/07 04:55:18;;;;;;;17.88;4.75;;;;;;;10.99;68.60;101652.25;4137037;28;20092;-62
2022/10/07 04:57:21;;;;;;;15.13;5.10;;;;;;;10.99;68.17;101654.84;4129882;28;20067;-62
2022/10/07 04:59:24;;;;;;;23.20;6.32;;;;;;;10.99;68.44;101653.16;4144009;28;20069;-62
2022/10/07 05:01:33;;;;;;;17.40;4.63;;;;;;;10.92;67.80;101647.69;4142032;28;20038;-63
2022/10/07 05:03:38;;;;;;;10.98;4.25;;;;;;;10.92;68.23;101645.06;4145306;28;20528;-62
2022/10/07 05:05:43;;;;;;;16.75;5.60;;;;;;;10.94;68.30;101636.50;4129171;28;20138;-62
2022/10/07 05:07:49;;;;;;;14.88;4.30;;;;;;;10.90;68.07;101641.56;4144519;28;20472;-68
2022/10/07 05:09:53;;;;;;;11.07;3.60;;;;;;;10.87;68.42;101642.34;4146541;28;20042;-63
2022/10/07 05:11:56;;;;;;;9.70;4.30;;;;;;;10.85;69.34;101633.59;4155142;28;20048;-62
2022/10/07 05:14:01;;;;;;;17.42;4.35;;;;;;;10.96;69.01;101628.75;4145322;28;20564;-62
2022/10/07 05:16:08;;;;;;;16.63;4.38;;;;;;;10.98;68.66;101632.25;4129953;28;20102;-62
2022/10/07 05:18:13;;;;;;;13.70;4.20;;;;;;;10.95;67.88;101634.75;4146280;28;20045;-62
2022/10/07 05:20:16;;;;;;;13.65;4.53;;;;;;;10.94;68.45;101635.63;4145447;28;20236;-62
2022/10/07 05:22:19;;;;;;;10.00;3.70;;;;;;;10.98;68.27;101638.38;4146014;28;20400;-62
2022/10/07 05:24:23;;;;;;;13.40;4.28;;;;;;;10.95;68.32;101634.75;4137737;28;20038;-62
2022/10/07 05:26:26;;;;;;;14.32;4.32;;;;;;;10.99;67.48;101631.44;4130032;28;20039;-62
2022/10/07 05:28:33;;;;;;;14.50;4.65;;;;;;;10.99;67.56;101629.72;4117103;28;20141;-62
2022/10/07 05:30:36;;;;;;;15.32;4.32;;;;;;;10.99;67.52;101631.44;4143995;28;20151;-62
2022/10/07 05:32:39;;;;;;;15.63;4.45;;;;;;;10.92;68.67;101629.47;4144741;28;20044;-62
2022/10/07 05:34:44;;;;;;;17.95;4.47;;;;;;;10.93;68.31;101637.31;4153622;28;20446;-62
2022/10/07 05:36:47;;;;;;;13.57;4.25;;;;;;;10.82;68.35;101641.31;4146100;28;20044;-64
2022/10/07 05:38:49;;;;;;;13.15;4.95;;;;;;;10.76;68.76;101633.28;4160647;28;20045;-61
2022/10/07 05:40:58;;;;;;;11.50;3.75;;;;;;;10.67;68.87;101633.88;4162367;28;20037;-61
2022/10/07 05:43:03;;;;;;;14.27;4.47;;;;;;;10.68;69.30;101638.25;4145858;28;20128;-62
2022/10/07 05:45:07;;;;;;;11.70;3.65;;;;;;;10.70;68.98;101633.97;4145597;28;20540;-61
2022/10/07 05:47:10;;;;;;;18.40;4.13;;;;;;;10.71;69.96;101633.16;4146055;28;20044;-62
2022/10/07 05:49:14;;;;;;;13.00;4.32;;;;;;;10.77;69.02;101625.53;4142531;28;20042;-62
2022/10/07 05:51:19;;;;;;;14.15;4.38;;;;;;;10.78;69.61;101629.03;4129713;28;20116;-61
2022/10/07 05:53:22;;;;;;;15.00;5.72;;;;;;;10.76;69.98;101625.50;4161426;28;20045;-62
2022/10/07 05:55:25;;;;;;;15.35;3.80;;;;;;;10.72;70.17;101627.13;4145864;28;20048;-61
2022/10/07 05:57:27;;;;;;;15.13;4.57;;;;;;;10.78;69.74;101621.25;4145624;28;20154;-62
2022/10/07 05:59:31;;;;;;;16.38;4.55;;;;;;;10.89;68.86;101618.97;4144491;28;20038;-62
2022/10/07 06:01:34;;;;;;;12.52;4.97;;;;;;;10.87;68.59;101620.66;4137017;28;20424;-62
2022/10/07 06:03:44;;;;;;;14.30;4.38;;;;;;;10.81;68.92;101627.41;4143173;28;20162;-62
2022/10/07 06:05:49;;;;;;;14.68;4.30;;;;;;;10.90;68.82;101625.94;4136359;28;20520;-62
2022/10/07 06:07:53;;;;;;;;;;;;;;;10.72;69.33;101621.91;4145260;28;20042;-62
2022/10/07 06:14:42;;;;;;;15.40;4.80;;;;;;;10.72;69.46;101615.81;4139959;28;20557;-62
2022/10/07 06:16:45;;;;;;;15.27;4.30;;;;;;;10.69;69.24;101621.81;4156767;28;20062;-61
2022/10/07 06:18:49;;;;;;;16.85;4.40;;;;;;;10.68;69.65;101612.25;4141822;28;20045;-62
2022/10/07 06:20:54;;;;;;;16.40;4.60;;;;;;;10.69;69.93;101624.44;4156778;28;20034;-62
2022/10/07 06:22:59;;;;;;;12.63;5.15;;;;;;;10.72;69.53;101621.03;4131916;28;20073;-62
2022/10/07 06:25:03;;;;;;;;;;;;;;;10.63;69.93;101629.41;4129341;28;20046;-62
2022/10/07 06:27:14;;;;;;;11.80;5.00;;;;;;;10.70;69.81;101631.38;4146004;28;19925;-61
2022/10/07 06:29:18;;;;;;;18.70;5.68;;;;;;;10.79;69.69;101623.88;4147248;28;20113;-61
2022/10/07 06:31:24;;;;;;;17.88;5.85;;;;;;;10.86;69.42;101624.06;4139697;28;20045;-62
2022/10/07 06:33:32;;;;;;;22.13;5.70;;;;;;;10.83;68.93;101625.75;4146902;28;20130;-61
2022/10/07 06:35:35;;;;;;;15.50;5.47;;;;;;;10.82;69.38;101626.59;4142702;28;20038;-61
2022/10/07 06:37:39;;;;;;;18.15;5.88;;;;;;;10.80;69.63;101624.75;4141820;28;20037;-61
2022/10/07 06:39:45;;;;;;;13.60;4.53;;;;;;;10.87;69.20;101631.06;4147761;28;20037;-62
2022/10/07 06:41:47;;;;;;;16.33;4.90;;;;;;;10.82;69.53;101623.13;4142213;28;20046;-62
2022/10/07 06:44:00;;;;;;;22.30;5.10;;;;;;;10.95;68.93;101616.56;4146210;28;20096;-61
2022/10/07 06:46:05;;;;;;;18.15;4.10;;;;;;;10.95;69.51;101620.06;4142225;28;20427;-62
2022/10/07 06:48:08;;;;;;;15.82;5.18;;;;;;;10.99;69.65;101618.41;4146292;28;20042;-62
2022/10/07 06:50:11;;;;;;;11.82;4.97;;;;;;;10.97;69.55;101618.38;4160908;28;20475;-62
2022/10/07 06:52:14;;;;;;;21.75;5.35;;;;;;;10.97;69.67;101627.91;4136021;28;20042;-61
2022/10/07 06:54:17;;;;;;;17.45;4.95;;;;;;;10.98;69.94;101622.75;4145709;28;20041;-62
2022/10/07 06:56:22;;;;;;;12.85;4.60;;;;;;;10.98;69.49;101624.44;4164030;28;20033;-61
2022/10/07 06:58:25;;;;;;;20.05;4.80;;;;;;;11.01;70.23;101619.38;4144371;28;20124;-62
2022/10/07 07:00:29;;;;;;;16.58;5.15;;;;;;;11.09;70.24;101622.19;4140972;28;20092;-61
2022/10/07 07:02:33;;;;;;;22.92;5.97;;;;;;;11.13;70.01;101622.34;4146630;28;20076;-61
2022/10/07 07:04:36;;;;;;;11.50;4.72;;;;;;;11.18;69.79;101625.06;4163568;28;20048;-61
2022/10/07 07:06:39;;;;;;;14.55;4.65;;;;;;;11.22;69.22;101615.66;4148176;28;20401;-61
2022/10/07 07:08:44;;;;;;;22.50;5.88;;;;;;;11.23;68.94;101614.78;4130526;28;20057;-61
2022/10/07 07:10:48;;;;;;;14.32;4.60;;;;;;;11.23;69.00;101626.13;4143580;28;20041;-61
2022/10/07 07:12:54;;;;;;;15.32;5.85;;;;;;;11.24;68.94;101634.78;4136030;28;20042;-62
2022/10/07 07:14:59;;;;;;;15.45;5.35;;;;;;;11.29;69.58;101625.41;4130928;28;20243;-62
2022/10/07 07:17:02;;;;;;;20.13;5.65;;;;;;;11.28;69.28;101626.25;4141113;28;20064;-61
2022/10/07 07:19:07;;;;;;;14.32;5.88;;;;;;;11.24;68.64;101629.59;4147200;28;20050;-62
2022/10/07 07:21:11;;;;;;;16.35;5.22;;;;;;;11.28;69.18;101618.44;4147961;28;20094;-61
2022/10/07 07:23:14;;;;;;;18.45;5.53;;;;;;;11.34;68.82;101622.09;4130857;28;20042;-61
2022/10/07 07:25:19;;;;;;;26.40;6.15;;;;;;;11.41;68.10;101617.97;4147888;28;20040;-62
2022/10/07 07:27:22;;;;;;;17.20;5.40;;;;;;;11.31;68.57;101623.72;4146199;28;20571;-61
2022/10/07 07:29:26;;;;;;;18.40;5.70;;;;;;;11.32;69.44;101621.16;4152021;28;20484;-61
2022/10/07 07:31:35;;;;;;;16.90;5.88;;;;;;;11.38;68.29;101620.47;4135143;28;20134;-61
2022/10/07 07:33:40;;;;;;;17.52;5.78;;;;;;;11.34;69.03;101626.41;4139210;28;20534;-61
2022/10/07 07:35:43;;;;;;;13.43;4.60;;;;;;;11.26;69.38;101626.19;4160339;28;20129;-61
2022/10/07 07:37:46;;;;;;;13.35;5.32;;;;;;;11.32;68.98;101625.50;4147255;28;20464;-61
2022/10/07 07:39:50;;;;;;;16.75;6.05;;;;;;;11.32;68.86;101625.50;4130966;28;20497;-61
2022/10/07 07:41:54;;;;;;;18.73;5.43;;;;;;;11.36;69.37;101619.56;4146712;28;20361;-61
2022/10/07 07:44:01;;;;;;;11.75;5.25;;;;;;;11.45;69.25;101622.41;4126797;28;20129;-61
2022/10/07 07:46:06;;;;;;;16.20;5.22;;;;;;;11.39;69.75;101621.34;4139652;28;20037;-61
2022/10/07 07:48:11;;;;;;;19.05;5.90;;;;;;;11.48;69.43;101613.81;4144588;28;20054;-62
2022/10/07 07:50:17;;;;;;;16.52;5.60;;;;;;;11.62;68.51;101603.78;4162261;28;20042;-62
2022/10/07 07:52:20;;;;;;;16.83;4.93;;;;;;;11.48;69.28;101606.00;4155664;28;20072;-62
2022/10/07 07:54:24;;;;;;;19.42;5.85;;;;;;;11.67;67.97;101610.03;4161548;28;20429;-61
2022/10/07 07:56:30;;;;;;;16.92;5.57;;;;;;;11.67;68.09;101613.50;4130641;28;20046;-62
2022/10/07 07:58:34;;;;;;;11.85;5.28;;;;;;;11.62;67.90;101609.91;4140770;28;20046;-62
2022/10/07 08:00:37;;;;;;;13.48;5.80;;;;;;;11.69;67.93;101610.94;4130742;28;20039;-61
2022/10/07 08:02:43;;;;;;;12.63;6.15;;;;;;;11.72;67.40;101621.44;4134938;28;20050;-61
2022/10/07 08:04:52;;;;;;;14.05;5.45;;;;;;;11.73;67.61;101617.13;4124167;28;20093;-61
2022/10/07 08:06:56;;;;;;;15.55;6.13;;;;;;;11.66;67.04;101616.94;4139250;28;20043;-62
2022/10/07 08:08:59;;;;;;;16.73;6.40;;;;;;;11.66;66.96;101616.06;4155415;28;20494;-62
2022/10/07 08:11:07;;;;;;;14.60;6.68;;;;;;;11.73;66.57;101615.41;4140205;28;20069;-61
2022/10/07 08:13:10;;;;;;;14.55;6.72;;;;;;;11.70;67.31;101610.09;4145637;28;20046;-61
2022/10/07 08:15:14;;;;;;;16.85;6.65;;;;;;;11.70;66.90;101608.38;4140943;28;20037;-61
2022/10/07 08:17:18;;;;;;;22.57;6.43;;;;;;;11.80;66.63;101606.91;4135187;28;20038;-61
2022/10/07 08:19:22;;;;;;;24.45;6.82;;;;;;;11.75;66.88;101600.69;4142345;28;20045;-61
2022/10/07 08:21:26;;;;;;;;;;;;;;;11.69;67.55;101601.38;4147071;28;20038;-61
2022/10/07 08:23:34;;;;;;;16.63;6.97;;;;;;;11.75;67.13;101599.81;4138911;28;19921;-61
2022/10/07 08:25:36;;;;;;;18.65;6.25;;;;;;;11.91;66.65;101601.13;4140135;28;20034;-61
2022/10/07 08:27:41;;;;;;;17.52;6.18;;;;;;;11.84;67.02;101600.06;4137691;28;20134;-61
2022/10/07 08:29:46;;;;;;;22.40;7.00;;;;;;;11.96;66.19;101599.53;4146564;28;20144;-61
2022/10/07 08:31:49;;;;;;;22.77;8.65;;;;;;;11.95;66.67;101603.88;4130340;28;20049;-61
2022/10/07 08:33:55;;;;;;;;;;;;;;;11.97;67.04;101597.00;4156367;28;20047;-62
2022/10/07 08:36:00;;;;;;;27.33;6.38;;;;;;;11.95;66.96;101587.38;4138045;28;19929;-61
2022/10/07 08:38:03;;;;;;;13.13;5.38;;;;;;;12.04;66.55;101595.41;4162184;28;20042;-61
2022/10/07 08:40:07;;;;;;;16.65;6.00;;;;;;;12.04;66.32;101590.19;4134617;28;20095;-61
2022/10/07 08:42:16;;;;;;;21.05;6.13;;;;;;;12.15;65.96;101583.56;4148068;28;20099;-62
2022/10/07 08:44:26;;;;;;;18.85;6.30;;;;;;;12.22;66.36;101581.97;4122811;28;20447;-61
2022/10/07 08:46:32;;;;;;;16.25;6.70;;;;;;;12.29;66.01;101581.28;4163914;28;20042;-61
2022/10/07 08:48:38;;;;;;;15.90;5.63;;;;;;;12.33;66.03;101574.44;4158561;28;20450;-61
2022/10/07 08:50:49;;;;;;;17.50;6.75;;;;;;;12.36;65.73;101575.38;4160763;28;20068;-61
2022/10/07 08:52:58;;;;;;;25.48;7.82;;;;;;;12.41;65.95;101572.88;4145368;28;20034;-61
2022/10/07 08:55:01;;;;;;;18.73;6.38;;;;;;;12.49;65.45;101571.34;4139291;28;20115;-61
2022/10/07 08:57:14;;;;;;;22.85;6.22;;;;;;;12.57;64.63;101572.44;4150231;28;20064;-61
2022/10/07 08:59:21;;;;;;;17.73;6.70;;;;;;;12.55;64.71;101568.00;4157779;28;20164;-61
2022/10/07 09:01:35;;;;;;;23.60;6.38;;;;;;;12.55;65.11;101568.00;4155872;28;20520;-64
2022/10/07 09:03:48;;;;;;;28.85;7.20;;;;;;;12.55;64.69;101566.28;4148532;28;20057;-61
2022/10/07 09:05:54;;;;;;;20.40;7.03;;;;;;;12.64;64.14;101562.13;4147430;28;20381;-61
2022/10/07 09:08:02;;;;;;;17.08;5.85;;;;;;;12.65;63.77;101558.69;4147764;28;20042;-61
2022/10/07 09:10:23;;;;;;;16.65;6.55;;;;;;;12.59;64.25;101559.41;4161786;28;20095;-61
2022/10/07 09:12:35;;;;;;;16.02;7.00;;;;;;;12.72;64.04;101563.19;4139774;28;20093;-62
2022/10/07 09:14:42;;;;;;;16.27;5.95;;;;;;;12.72;64.39;101552.78;4146357;28;20406;-61
2022/10/07 09:16:47;;;;;;;14.93;6.38;;;;;;;12.83;63.88;101556.47;4154103;28;20034;-62
2022/10/07 09:18:53;;;;;;;17.77;7.65;;;;;;;12.86;64.03;101547.84;4163279;28;20076;-62
2022/10/07 09:20:56;;;;;;;18.52;6.07;;;;;;;12.90;64.13;101550.56;4143656;28;20061;-61
2022/10/07 09:23:02;;;;;;;16.33;6.50;;;;;;;12.98;64.32;101550.75;4147821;28;20129;-62
2022/10/07 09:25:19;;;;;;;15.48;6.53;;;;;;;13.10;64.42;101543.16;4147918;28;20042;-62
2022/10/07 09:27:21;;;;;;;13.38;6.47;;;;;;;13.10;64.13;101539.69;4138352;28;20381;-62
2022/10/07 09:29:26;;;;;;;19.10;7.07;;;;;;;13.16;64.47;101545.03;4137537;28;20455;-62
2022/10/07 09:31:30;;;;;;;15.40;5.80;;;;;;;13.23;63.74;101540.81;4153155;28;20066;-62
2022/10/07 09:33:39;;;;;;;15.55;5.95;;;;;;;13.26;64.14;101541.75;4159214;28;20045;-62
2022/10/07 09:35:52;;;;;;;17.40;7.35;;;;;;;13.42;63.84;101536.88;4145579;28;20061;-62
2022/10/07 09:38:02;;;;;;;19.35;6.78;;;;;;;13.48;63.30;101534.38;4147217;28;20447;-62
2022/10/07 09:40:22;;;;;;;15.55;5.63;;;;;;;13.47;62.96;101530.00;4143230;28;20116;-62
2022/10/07 09:42:31;;;;;;;16.83;7.45;;;;;;;13.55;63.32;101532.75;4154527;28;20038;-62
2022/10/07 09:44:34;;;;;;;16.35;6.47;;;;;;;13.60;62.65;101529.38;4139167;28;20097;-62
2022/10/07 09:46:47;;;;;;;26.52;7.68;;;;;;;13.69;63.14;101525.19;4147656;28;20041;-62
2022/10/07 09:48:52;;;;;;;15.13;7.05;;;;;;;13.75;62.39;101530.53;4135193;28;20468;-62
2022/10/07 09:51:14;;;;;;;15.50;6.55;;;;;;;13.69;62.77;101527.81;4155377;28;20096;-62